createdAt,value
2018-12-05T00:00:29.729Z,99558.09
2018-12-05T00:02:58.759Z,99561.80
2018-12-05T00:05:27.669Z,99560.56
2018-12-05T00:07:56.945Z,99563.97
2018-12-05T00:10:25.756Z,99563.41
2018-12-05T00:12:54.657Z,99561.74
2018-12-05T00:15:23.477Z,99568.95
2018-12-05T00:17:52.505Z,99569.33
2018-12-05T00:20:21.447Z,99574.41
2018-12-05T00:22:50.338Z,99576.16
2018-12-05T00:25:19.358Z,99582.67
2018-12-05T00:27:48.275Z,99577.98
2018-12-05T00:30:17.179Z,99582.73
2018-12-05T00:32:45.966Z,99579.77
2018-12-05T00:35:14.909Z,99582.79
2018-12-05T00:37:43.816Z,99582.94
2018-12-05T00:40:12.765Z,99581.57
2018-12-05T00:42:41.758Z,99585.48
2018-12-05T00:45:10.679Z,99576.41
2018-12-05T00:47:39.581Z,99575.63
2018-12-05T00:50:08.500Z,99570.79
2018-12-05T00:52:37.402Z,99565.89
2018-12-05T00:55:06.311Z,99574.41
2018-12-05T00:57:35.354Z,99573.55
2018-12-05T01:00:06.202Z,99569.83
2018-12-05T01:02:35.125Z,99574.08
2018-12-05T01:05:04.585Z,99579.41
2018-12-05T01:07:33.493Z,99574.67
2018-12-05T01:10:02.505Z,99573.59
2018-12-05T01:12:31.737Z,99571.47
2018-12-05T01:15:00.746Z,99570.16
2018-12-05T01:17:29.682Z,99570.63
2018-12-05T01:19:59.288Z,99574.16
2018-12-05T01:22:28.225Z,99574.05
2018-12-05T01:24:57.162Z,99574.08
2018-12-05T01:27:26.324Z,99566.64
2018-12-05T01:29:55.229Z,99569.69
2018-12-05T01:32:24.238Z,99560.77
2018-12-05T01:34:53.124Z,99561.50
2018-12-05T01:37:22.017Z,99563.17
2018-12-05T01:39:50.924Z,99569.48
2018-12-05T01:42:19.727Z,99563.55
2018-12-05T01:44:50.677Z,99564.02
2018-12-05T01:47:19.506Z,99566.70
2018-12-05T01:49:49.005Z,99561.71
2018-12-05T01:52:17.914Z,99560.85
2018-12-05T01:54:46.729Z,99565.06
2018-12-05T01:57:15.631Z,99570.08
2018-12-05T01:59:44.597Z,99568.83
2018-12-05T02:02:13.510Z,99569.90
2018-12-05T02:04:42.434Z,99573.39
2018-12-05T02:07:11.336Z,99568.53
2018-12-05T02:09:42.301Z,99572.18
2018-12-05T02:12:11.338Z,99569.98
2018-12-05T02:14:40.353Z,99579.83
2018-12-05T02:17:09.267Z,99582.73
2018-12-05T02:19:38.164Z,99575.83
2018-12-05T02:22:07.092Z,99588.76
2018-12-05T02:24:36.001Z,99588.73
2018-12-05T02:27:04.890Z,99589.11
2018-12-05T02:29:39.420Z,99593.73
2018-12-05T02:32:08.416Z,99588.58
2018-12-05T02:34:37.461Z,99594.60
2018-12-05T02:37:06.261Z,99588.55
2018-12-05T02:39:35.090Z,99590.95
2018-12-05T02:42:03.968Z,99594.84
2018-12-05T02:44:32.758Z,99593.44
2018-12-05T02:47:01.765Z,99596.04
2018-12-05T02:49:30.646Z,99595.53
2018-12-05T02:51:59.556Z,99597.60
2018-12-05T02:54:28.469Z,99597.09
2018-12-05T02:56:57.338Z,99593.47
2018-12-05T02:59:26.188Z,99595.99
2018-12-05T03:01:55.133Z,99598.24
2018-12-05T03:04:24.099Z,99603.41
2018-12-05T03:06:52.990Z,99598.60
2018-12-05T03:09:22.049Z,99603.41
2018-12-05T03:11:51.060Z,99599.19
2018-12-05T03:14:19.948Z,99601.30
2018-12-05T03:16:48.840Z,99608.53
2018-12-05T03:19:17.628Z,99607.67
2018-12-05T03:21:46.430Z,99603.91
2018-12-05T03:24:15.435Z,99609.45
2018-12-05T03:26:44.387Z,99610.51
2018-12-05T03:29:13.215Z,99616.95
2018-12-05T03:31:42.221Z,99617.16
2018-12-05T03:34:11.153Z,99618.95
2018-12-05T03:36:40.061Z,99621.58
2018-12-05T03:39:09.211Z,99617.80
2018-12-05T03:41:38.153Z,99630.41
2018-12-05T03:44:06.972Z,99630.55
2018-12-05T03:46:35.778Z,99626.21
2018-12-05T03:49:04.732Z,99627.87
2018-12-05T03:51:33.621Z,99626.93
2018-12-05T03:54:02.740Z,99621.44
2018-12-05T03:56:31.666Z,99620.50
2018-12-05T03:59:00.506Z,99624.33
2018-12-05T04:01:29.405Z,99623.44
2018-12-05T04:03:58.213Z,99630.48
2018-12-05T04:06:27.306Z,99629.90
2018-12-05T04:08:56.528Z,99632.37
2018-12-05T04:11:25.633Z,99634.98
2018-12-05T04:13:54.625Z,99634.59
2018-12-05T04:16:23.922Z,99633.09
2018-12-05T04:18:52.812Z,99634.81
2018-12-05T04:21:21.873Z,99640.67
2018-12-05T04:23:53.969Z,99641.33
2018-12-05T04:26:23.040Z,99637.99
2018-12-05T04:28:52.292Z,99641.41
2018-12-05T04:31:21.661Z,99649.09
2018-12-05T04:33:50.838Z,99648.59
2018-12-05T04:36:20.265Z,99653.59
2018-12-05T04:38:49.453Z,99663.39
2018-12-05T04:41:18.402Z,99668.73
2018-12-05T04:43:47.443Z,99665.60
2018-12-05T04:46:16.397Z,99670.89
2018-12-05T04:48:45.728Z,99675.44
2018-12-05T04:51:14.627Z,99673.71
2018-12-05T04:53:43.474Z,99674.78
2018-12-05T04:56:12.501Z,99674.73
2018-12-05T04:58:41.301Z,99674.73
2018-12-05T05:01:10.141Z,99680.94
2018-12-05T05:03:39.141Z,99680.92
2018-12-05T05:06:08.158Z,99677.47
2018-12-05T05:08:36.961Z,99681.53
2018-12-05T05:11:05.842Z,99685.31
2018-12-05T05:13:34.654Z,99693.24
2018-12-05T05:16:03.579Z,99701.69
2018-12-05T05:18:32.479Z,99707.77
2018-12-05T05:21:01.408Z,99714.34
2018-12-05T05:23:30.210Z,99715.45
2018-12-05T05:25:59.117Z,99728.31
2018-12-05T05:28:27.913Z,99730.06
2018-12-05T05:30:56.821Z,99734.85
2018-12-05T05:33:25.645Z,99732.22
2018-12-05T05:35:54.447Z,99739.92
2018-12-05T05:38:23.234Z,99744.33
2018-12-05T05:40:52.238Z,99745.88
2018-12-05T05:43:21.192Z,99743.17
2018-12-05T05:45:50.013Z,99754.95
2018-12-05T05:48:18.830Z,99752.94
2018-12-05T05:50:47.716Z,99754.34
2018-12-05T05:53:16.631Z,99756.66
2018-12-05T05:55:45.453Z,99757.22
2018-12-05T05:58:14.340Z,99762.06
2018-12-05T06:00:43.241Z,99758.00
2018-12-05T06:03:12.123Z,99754.78
2018-12-05T06:05:40.969Z,99765.39
2018-12-05T06:08:09.876Z,99767.08
2018-12-05T06:10:38.929Z,99761.80
2018-12-05T06:13:10.081Z,99766.38
2018-12-05T06:15:39.021Z,99767.42
2018-12-05T06:18:08.390Z,99776.70
2018-12-05T06:20:37.582Z,99771.91
2018-12-05T06:23:06.437Z,99783.88
2018-12-05T06:25:35.363Z,99781.59
2018-12-05T06:28:04.398Z,99784.36
2018-12-05T06:30:33.201Z,99786.23
2018-12-05T06:33:02.837Z,99783.93
2018-12-05T06:35:31.750Z,99787.98
2018-12-05T06:38:00.571Z,99786.30
2018-12-05T06:40:29.353Z,99795.56
2018-12-05T06:42:58.342Z,99801.76
2018-12-05T06:45:27.765Z,99789.05
2018-12-05T06:47:56.665Z,99802.70
2018-12-05T06:50:26.401Z,99814.11
2018-12-05T06:52:55.407Z,99808.60
2018-12-05T06:55:24.228Z,99808.33
2018-12-05T06:57:53.153Z,99811.38
2018-12-05T07:00:22.274Z,99812.44
2018-12-05T07:02:51.273Z,99807.84
2018-12-05T07:05:20.161Z,99808.63
2018-12-05T07:07:49.178Z,99816.59
2018-12-05T07:10:18.101Z,99811.92
2018-12-05T07:12:47.021Z,99816.70
2018-12-05T07:15:15.833Z,99817.30
2018-12-05T07:17:44.869Z,99822.16
2018-12-05T07:20:13.781Z,99828.11
2018-12-05T07:22:42.794Z,99823.55
2018-12-05T07:25:11.725Z,99824.72
2018-12-05T07:27:40.634Z,99834.79
2018-12-05T07:30:09.723Z,99819.13
2018-12-05T07:32:38.525Z,99828.63
2018-12-05T07:35:07.597Z,99830.80
2018-12-05T07:37:36.873Z,99831.97
2018-12-05T07:40:06.017Z,99827.13
2018-12-05T07:42:35.688Z,99826.02
2018-12-05T07:45:05.004Z,99828.98
2018-12-05T07:47:33.941Z,99826.97
2018-12-05T07:50:02.918Z,99828.77
2018-12-05T07:52:31.822Z,99822.78
2018-12-05T07:55:00.741Z,99826.33
2018-12-05T07:57:30.281Z,99824.70
2018-12-05T07:59:59.209Z,99833.61
2018-12-05T08:02:28.109Z,99837.45
2018-12-05T08:04:57.113Z,99839.49
2018-12-05T08:07:26.013Z,99841.22
2018-12-05T08:09:54.923Z,99840.30
2018-12-05T08:12:23.928Z,99832.13
2018-12-05T08:14:52.853Z,99835.63
2018-12-05T08:17:21.853Z,99834.37
2018-12-05T08:19:50.878Z,99832.43
2018-12-05T08:22:19.783Z,99831.11
2018-12-05T08:24:48.689Z,99835.98
2018-12-05T08:27:17.631Z,99826.83
2018-12-05T08:29:46.686Z,99826.64
2018-12-05T08:32:15.666Z,99833.51
2018-12-05T08:34:44.666Z,99833.73
2018-12-05T08:37:13.581Z,99829.81
2018-12-05T08:39:42.591Z,99836.30
2018-12-05T08:42:11.503Z,99836.88
2018-12-05T08:44:40.286Z,99835.13
2018-12-05T08:47:09.227Z,99829.34
2018-12-05T08:49:38.181Z,99830.45
2018-12-05T08:52:07.151Z,99831.03
2018-12-05T08:54:36.242Z,99834.44
2018-12-05T08:57:05.169Z,99831.43
2018-12-05T08:59:34.014Z,99823.34
2018-12-05T09:02:03.095Z,99821.05
2018-12-05T09:04:32.030Z,99816.39
2018-12-05T09:07:00.950Z,99810.69
2018-12-05T09:09:29.754Z,99813.09
2018-12-05T09:11:58.677Z,99813.65
2018-12-05T09:14:28.955Z,99810.69
2018-12-05T09:16:58.014Z,99811.86
2018-12-05T09:19:26.985Z,99815.95
2018-12-05T09:21:55.777Z,99809.30
2018-12-05T09:24:24.586Z,99808.92
2018-12-05T09:26:53.417Z,99816.00
2018-12-05T09:29:22.315Z,99818.92
2018-12-05T09:31:51.330Z,99820.77
2018-12-05T09:34:20.232Z,99812.08
2018-12-05T09:36:49.174Z,99815.42
2018-12-05T09:39:18.173Z,99824.59
2018-12-05T09:41:47.052Z,99816.99
2018-12-05T09:44:15.949Z,99821.34
2018-12-05T09:46:47.621Z,99829.31
2018-12-05T09:49:16.586Z,99820.25
2018-12-05T09:51:45.503Z,99824.52
2018-12-05T09:54:14.318Z,99828.22
2018-12-05T09:56:43.155Z,99825.62
2018-12-05T09:59:11.989Z,99828.89
2018-12-05T10:01:40.877Z,99826.78
2018-12-05T10:04:09.738Z,99823.84
2018-12-05T10:06:39.210Z,99825.63
2018-12-05T10:09:08.870Z,99827.06
2018-12-05T10:11:37.860Z,99820.50
2018-12-05T10:14:06.709Z,99818.94
2018-12-05T10:16:35.655Z,99823.22
2018-12-05T10:19:04.455Z,99828.31
2018-12-05T10:21:33.532Z,99831.02
2018-12-05T10:24:02.462Z,99828.64
2018-12-05T10:26:31.372Z,99823.14
2018-12-05T10:29:00.198Z,99833.55
2018-12-05T10:31:29.121Z,99839.33
2018-12-05T10:33:57.934Z,99836.11
2018-12-05T10:36:26.749Z,99839.64
2018-12-05T10:38:55.650Z,99835.31
2018-12-05T10:41:24.606Z,99832.14
2018-12-05T10:43:53.607Z,99824.73
2018-12-05T10:46:22.455Z,99829.05
2018-12-05T10:48:51.354Z,99827.03
2018-12-05T10:51:20.284Z,99825.48
2018-12-05T10:53:49.205Z,99821.62
2018-12-05T10:56:18.305Z,99816.56
2018-12-05T10:58:47.122Z,99820.23
2018-12-05T11:01:21.625Z,99814.41
2018-12-05T11:03:50.766Z,99808.28
2018-12-05T11:06:25.157Z,99803.39
2018-12-05T11:08:59.581Z,99819.67
2018-12-05T11:11:34.068Z,99819.08
2018-12-05T11:14:08.669Z,99814.11
2018-12-05T11:16:43.082Z,99803.48
2018-12-05T11:19:17.352Z,99801.56
2018-12-05T11:21:58.669Z,99800.84
2018-12-05T11:24:32.585Z,99808.31
2018-12-05T11:27:01.530Z,99805.80
2018-12-05T11:29:30.405Z,99808.92
2018-12-05T11:31:59.250Z,99798.88
2018-12-05T11:34:28.197Z,99802.27
2018-12-05T11:36:57.014Z,99804.45
2018-12-05T11:39:25.939Z,99799.50
2018-12-05T11:41:54.847Z,99807.44
2018-12-05T11:44:24.442Z,99802.64
2018-12-05T11:46:53.390Z,99813.42
2018-12-05T11:49:22.310Z,99804.14
2018-12-05T11:51:52.824Z,99810.42
2018-12-05T11:54:21.847Z,99809.52
2018-12-05T11:56:50.758Z,99810.27
2018-12-05T11:59:19.788Z,99819.27
2018-12-05T12:01:48.613Z,99816.11
2018-12-05T12:04:17.512Z,99817.63
2018-12-05T12:06:46.354Z,99821.01
2018-12-05T12:09:15.618Z,99814.17
2018-12-05T12:11:44.601Z,99820.23
2018-12-05T12:14:13.721Z,99823.69
2018-12-05T12:16:42.849Z,99816.73
2018-12-05T12:19:11.864Z,99821.49
2018-12-05T12:21:42.797Z,99826.97
2018-12-05T12:24:11.718Z,99820.50
2018-12-05T12:26:40.618Z,99823.83
2018-12-05T12:29:09.522Z,99826.46
2018-12-05T12:31:38.550Z,99819.61
2018-12-05T12:34:07.475Z,99828.05
2018-12-05T12:36:36.368Z,99821.23
2018-12-05T12:39:06.886Z,99814.55
2018-12-05T12:41:35.730Z,99819.62
2018-12-05T12:44:05.171Z,99823.86
2018-12-05T12:46:34.081Z,99830.67
2018-12-05T12:49:03.351Z,99831.42
2018-12-05T12:51:32.265Z,99825.44
2018-12-05T12:54:01.057Z,99825.65
2018-12-05T12:56:29.954Z,99814.55
2018-12-05T12:58:58.857Z,99824.66
2018-12-05T13:01:27.947Z,99822.33
2018-12-05T13:03:56.942Z,99826.14
2018-12-05T13:06:26.372Z,99816.31
2018-12-05T13:08:55.325Z,99816.41
2018-12-05T13:11:24.335Z,99820.63
2018-12-05T13:13:53.362Z,99820.42
2018-12-05T13:16:22.273Z,99816.16
2018-12-05T13:18:51.162Z,99821.45
2018-12-05T13:21:20.180Z,99828.39
2018-12-05T13:23:49.085Z,99835.45
2018-12-05T13:26:18.133Z,99839.88
2018-12-05T13:28:47.135Z,99834.84
2018-12-05T13:31:16.155Z,99839.27
2018-12-05T13:33:45.093Z,99849.78
2018-12-05T13:36:14.116Z,99849.00
2018-12-05T13:38:43.833Z,99850.92
2018-12-05T13:41:12.938Z,99850.39
2018-12-05T13:43:42.073Z,99857.81
2018-12-05T13:46:11.404Z,99857.00
2018-12-05T13:48:40.560Z,99851.05
2018-12-05T13:51:09.471Z,99855.10
2018-12-05T13:53:38.613Z,99862.94
2018-12-05T13:56:09.372Z,99861.22
2018-12-05T13:58:38.746Z,99869.23
2018-12-05T14:01:08.697Z,99877.42
2018-12-05T14:03:37.809Z,99873.81
2018-12-05T14:06:07.539Z,99882.81
2018-12-05T14:08:36.655Z,99888.05
2018-12-05T14:11:05.681Z,99889.75
2018-12-05T14:13:36.141Z,99892.47
2018-12-05T14:16:05.614Z,99891.36
2018-12-05T14:18:35.179Z,99908.99
2018-12-05T14:21:04.468Z,99897.45
2018-12-05T14:23:33.399Z,99916.94
2018-12-05T14:26:03.138Z,99910.16
2018-12-05T14:28:32.155Z,99925.02
2018-12-05T14:31:01.286Z,99914.09
2018-12-05T14:33:30.729Z,99915.83
2018-12-05T14:35:59.934Z,99924.45
2018-12-05T14:38:29.033Z,99926.41
2018-12-05T14:40:58.245Z,99937.95
2018-12-05T14:43:27.339Z,99936.01
2018-12-05T14:45:56.916Z,99939.08
2018-12-05T14:48:25.832Z,99937.28
2018-12-05T14:50:55.368Z,99945.83
2018-12-05T14:53:24.647Z,99942.34
2018-12-05T14:55:53.974Z,99946.51
2018-12-05T14:58:23.061Z,99948.45
2018-12-05T15:00:52.249Z,99948.64
2018-12-05T15:03:21.413Z,99948.37
2018-12-05T15:05:50.385Z,99952.23
2018-12-05T15:08:19.842Z,99952.58
2018-12-05T15:10:49.153Z,99959.84
2018-12-05T15:13:18.260Z,99959.05
2018-12-05T15:15:47.521Z,99960.12
2018-12-05T15:18:16.954Z,99962.55
2018-12-05T15:20:46.399Z,99965.11
2018-12-05T15:23:15.314Z,99974.50
2018-12-05T15:25:44.670Z,99982.09
2018-12-05T15:28:13.939Z,99988.66
2018-12-05T15:30:43.170Z,99997.31
2018-12-05T15:33:12.288Z,99998.59
2018-12-05T15:35:41.292Z,100007.12
2018-12-05T15:38:10.507Z,100007.29
2018-12-05T15:40:39.949Z,100023.37
2018-12-05T15:43:09.100Z,100020.67
2018-12-05T15:45:38.083Z,100019.50
2018-12-05T15:48:07.282Z,100027.37
2018-12-05T15:50:36.618Z,100029.58
2018-12-05T15:53:05.650Z,100047.64
2018-12-05T15:55:34.807Z,100048.27
2018-12-05T15:58:04.045Z,100053.61
2018-12-05T16:00:32.977Z,100065.30
2018-12-05T16:03:02.002Z,100064.60
2018-12-05T16:05:31.539Z,100070.36
2018-12-05T16:08:00.779Z,100073.78
2018-12-05T16:10:29.893Z,100082.54
2018-12-05T16:12:58.825Z,100076.11
2018-12-05T16:15:27.925Z,100084.87
2018-12-05T16:17:56.773Z,100085.58
2018-12-05T16:20:25.583Z,100088.16
2018-12-05T16:22:54.587Z,100092.64
2018-12-05T16:25:23.565Z,100099.98
2018-12-05T16:27:52.966Z,100099.57
2018-12-05T16:30:21.981Z,100101.04
2018-12-05T16:32:50.956Z,100101.99
2018-12-05T16:35:19.963Z,100105.50
2018-12-05T16:37:49.112Z,100095.92
2018-12-05T16:40:24.661Z,100105.34
2018-12-05T16:42:53.578Z,100103.48
2018-12-05T16:45:22.510Z,100105.81
2018-12-05T16:47:51.776Z,100101.85
2018-12-05T16:50:20.738Z,100096.77
2018-12-05T16:52:49.689Z,100108.70
2018-12-05T16:55:18.601Z,100103.25
2018-12-05T16:57:47.990Z,100101.37
2018-12-05T17:00:16.924Z,100108.73
2018-12-05T17:02:45.928Z,100109.33
2018-12-05T17:05:15.239Z,100116.92
2018-12-05T17:07:44.232Z,100119.98
2018-12-05T19:04:13.786Z,100310.09
2018-12-05T19:06:44.450Z,100317.77
2018-12-05T19:09:15.063Z,100320.11
2018-12-05T19:11:43.897Z,100322.20
2018-12-05T19:14:18.270Z,100319.37
2018-12-05T19:16:47.420Z,100320.83
2018-12-05T19:19:16.382Z,100321.97
2018-12-05T19:21:45.394Z,100324.91
2018-12-05T19:24:14.821Z,100333.72
2018-12-05T19:26:43.765Z,100329.16
2018-12-05T19:29:12.649Z,100338.41
2018-12-05T19:31:41.545Z,100336.94
2018-12-05T19:34:11.275Z,100338.02
2018-12-05T19:36:40.973Z,100343.41
2018-12-05T19:39:09.793Z,100350.27
2018-12-05T19:41:39.216Z,100348.59
2018-12-05T19:44:09.142Z,100359.00
2018-12-05T19:46:39.125Z,100350.92
2018-12-05T19:49:08.254Z,100363.38
2018-12-05T19:51:37.582Z,100371.16
2018-12-05T19:54:07.066Z,100371.39
2018-12-05T19:56:35.985Z,100372.94
2018-12-05T19:59:05.095Z,100382.28
2018-12-05T20:01:34.117Z,100378.80
2018-12-05T20:04:03.433Z,100372.02
2018-12-05T20:06:33.189Z,100384.75
2018-12-05T20:09:02.039Z,100378.80
2018-12-05T20:11:31.278Z,100388.08
2018-12-05T20:14:00.677Z,100402.83
2018-12-05T20:16:29.593Z,100398.09
2018-12-05T20:18:58.825Z,100402.58
2018-12-05T20:21:28.329Z,100404.37
2018-12-05T20:23:57.894Z,100403.11
2018-12-05T20:26:27.280Z,100409.16
2018-12-05T20:28:56.760Z,100414.98
2018-12-05T20:31:25.740Z,100411.31
2018-12-05T20:33:54.678Z,100412.34
2018-12-05T20:36:24.605Z,100414.47
2018-12-05T20:38:53.707Z,100417.98
2018-12-05T20:41:22.989Z,100422.22
2018-12-05T20:43:51.827Z,100426.30
2018-12-05T20:46:20.850Z,100430.27
2018-12-05T20:48:49.776Z,100431.95
2018-12-05T20:51:19.503Z,100432.44
2018-12-05T20:53:48.564Z,100441.73
2018-12-05T20:56:18.177Z,100442.66
2018-12-05T20:58:47.089Z,100439.93
2018-12-05T21:01:16.118Z,100438.23
2018-12-05T21:03:45.117Z,100432.12
2018-12-05T21:06:14.149Z,100436.31
2018-12-05T21:08:43.159Z,100438.19
2018-12-05T21:11:12.094Z,100433.35
2018-12-05T21:13:42.738Z,100434.44
2018-12-05T21:16:11.909Z,100434.75
2018-12-05T21:18:41.014Z,100444.81
2018-12-05T21:21:09.947Z,100444.45
2018-12-05T21:23:38.793Z,100440.41
2018-12-05T21:26:07.761Z,100452.44
2018-12-05T21:28:36.917Z,100457.77
2018-12-05T21:31:05.917Z,100455.58
2018-12-05T21:33:35.224Z,100452.05
2018-12-05T21:36:04.129Z,100455.05
2018-12-05T21:38:33.617Z,100460.78
2018-12-05T21:41:02.618Z,100463.74
2018-12-05T21:43:31.613Z,100462.12
2018-12-05T21:46:00.516Z,100458.69
2018-12-05T21:48:29.430Z,100460.98
2018-12-05T21:50:58.555Z,100456.44
2018-12-05T21:53:27.556Z,100456.67
2018-12-05T21:55:56.445Z,100449.00
2018-12-05T21:58:25.441Z,100449.95
2018-12-05T22:00:54.442Z,100453.34
2018-12-05T22:03:23.532Z,100453.23
2018-12-05T22:05:52.445Z,100452.44
2018-12-05T22:08:21.233Z,100454.81
2018-12-05T22:10:50.047Z,100455.56
2018-12-05T22:13:18.931Z,100450.63
2018-12-05T22:15:48.116Z,100450.73
2018-12-05T22:18:17.256Z,100447.89
2018-12-05T22:20:46.224Z,100446.66
2018-12-05T22:23:15.201Z,100443.23
2018-12-05T22:25:44.077Z,100451.48
2018-12-05T22:28:13.088Z,100440.22
2018-12-05T22:30:41.869Z,100440.30
2018-12-05T22:33:10.760Z,100440.09
2018-12-05T22:35:39.658Z,100440.09
2018-12-05T22:38:08.625Z,100436.54
2018-12-05T22:40:37.791Z,100442.54
2018-12-05T22:43:06.829Z,100449.48
2018-12-05T22:45:35.709Z,100447.30
2018-12-05T22:48:04.514Z,100450.30
2018-12-05T22:50:33.614Z,100448.16
2018-12-05T22:53:02.392Z,100445.72
2018-12-05T22:55:31.422Z,100445.61
2018-12-05T22:58:00.411Z,100448.33
2018-12-05T23:00:29.818Z,100452.36
2018-12-05T23:02:58.771Z,100460.70
2018-12-05T23:05:27.825Z,100454.53
2018-12-05T23:07:56.722Z,100460.58
2018-12-05T23:10:25.608Z,100457.87
2018-12-05T23:12:54.580Z,100447.69
2018-12-05T23:15:23.622Z,100444.45
2018-12-05T23:17:52.434Z,100438.84
2018-12-05T23:20:21.349Z,100436.52
2018-12-05T23:22:50.351Z,100430.59
2018-12-05T23:25:19.265Z,100433.39
2018-12-05T23:27:48.249Z,100438.53
2018-12-05T23:30:17.499Z,100442.66
2018-12-05T23:32:46.406Z,100443.31
2018-12-05T23:35:15.497Z,100450.66
2018-12-05T23:37:44.546Z,100457.08
2018-12-05T23:40:13.510Z,100453.56
2018-12-05T23:42:43.392Z,100455.36
2018-12-05T23:45:12.456Z,100458.34
2018-12-05T23:47:41.468Z,100451.49
2018-12-05T23:50:10.265Z,100455.95
2018-12-05T23:52:39.172Z,100457.58
2018-12-05T23:55:08.369Z,100456.78
2018-12-05T23:57:37.269Z,100458.56
